sensor_id;sensor_type;location;lat;lon;timestamp;P1;durP1;ratioP1;P2;durP2;ratioP2
4694;SDS011;2361;49.540;8.390;2023-06-26T00:01:08;6.20;;;3.50;;
4694;SDS011;2361;49.540;8.390;2023-06-26T00:03:35;5.47;;;3.87;;
4694;SDS011;2361;49.540;8.390;2023-06-26T00:06:02;5.07;;;3.50;;
4694;SDS011;2361;49.540;8.390;2023-06-26T00:08:29;5.27;;;4.10;;
4694;SDS011;2361;49.540;8.390;2023-06-26T00:10:56;3.90;;;3.50;;
4694;SDS011;2361;49.540;8.390;2023-06-26T00:13:23;5.70;;;3.80;;
4694;SDS011;2361;49.540;8.390;2023-06-26T00:15:50;5.07;;;3.43;;
4694;SDS011;2361;49.540;8.390;2023-06-26T00:18:18;6.23;;;4.40;;
4694;SDS011;2361;49.540;8.390;2023-06-26T00:20:45;5.43;;;4.10;;
4694;SDS011;2361;49.540;8.390;2023-06-26T00:23:13;4.80;;;3.20;;
4694;SDS011;2361;49.540;8.390;2023-06-26T00:25:43;5.10;;;3.50;;
4694;SDS011;2361;49.540;8.390;2023-06-26T00:28:10;3.77;;;3.00;;
4694;SDS011;2361;49.540;8.390;2023-06-26T00:30:37;5.30;;;3.90;;
4694;SDS011;2361;49.540;8.390;2023-06-26T00:33:04;4.50;;;3.37;;
4694;SDS011;2361;49.540;8.390;2023-06-26T00:35:31;4.67;;;3.43;;
4694;SDS011;2361;49.540;8.390;2023-06-26T00:37:58;5.23;;;3.27;;
4694;SDS011;2361;49.540;8.390;2023-06-26T00:40:25;3.60;;;3.30;;
4694;SDS011;2361;49.540;8.390;2023-06-26T00:42:53;4.23;;;3.60;;
4694;SDS011;2361;49.540;8.390;2023-06-26T00:45:20;3.57;;;3.27;;
4694;SDS011;2361;49.540;8.390;2023-06-26T00:47:59;3.27;;;2.87;;
4694;SDS011;2361;49.540;8.390;2023-06-26T00:50:26;5.10;;;2.80;;
4694;SDS011;2361;49.540;8.390;2023-06-26T00:52:53;4.50;;;3.40;;
4694;SDS011;2361;49.540;8.390;2023-06-26T00:55:26;4.40;;;3.93;;
4694;SDS011;2361;49.540;8.390;2023-06-26T00:57:54;6.13;;;3.70;;
4694;SDS011;2361;49.540;8.390;2023-06-26T01:00:21;4.63;;;3.60;;
4694;SDS011;2361;49.540;8.390;2023-06-26T01:02:49;4.23;;;3.47;;
4694;SDS011;2361;49.540;8.390;2023-06-26T01:05:16;6.07;;;4.67;;
4694;SDS011;2361;49.540;8.390;2023-06-26T01:07:49;5.00;;;4.50;;
4694;SDS011;2361;49.540;8.390;2023-06-26T01:10:18;5.00;;;3.67;;
4694;SDS011;2361;49.540;8.390;2023-06-26T01:12:45;5.07;;;4.00;;
4694;SDS011;2361;49.540;8.390;2023-06-26T01:15:13;3.97;;;3.57;;
4694;SDS011;2361;49.540;8.390;2023-06-26T01:17:40;5.10;;;3.90;;
4694;SDS011;2361;49.540;8.390;2023-06-26T01:20:11;6.33;;;3.50;;
4694;SDS011;2361;49.540;8.390;2023-06-26T01:22:45;4.50;;;3.50;;
4694;SDS011;2361;49.540;8.390;2023-06-26T01:28:43;5.43;;;4.00;;
4694;SDS011;2361;49.540;8.390;2023-06-26T01:31:11;6.53;;;3.90;;
4694;SDS011;2361;49.540;8.390;2023-06-26T01:33:39;3.63;;;3.30;;
4694;SDS011;2361;49.540;8.390;2023-06-26T01:36:07;4.27;;;3.70;;
4694;SDS011;2361;49.540;8.390;2023-06-26T01:38:34;4.80;;;3.23;;
4694;SDS011;2361;49.540;8.390;2023-06-26T01:41:02;4.83;;;3.97;;
4694;SDS011;2361;49.540;8.390;2023-06-26T01:46:11;3.53;;;3.07;;
4694;SDS011;2361;49.540;8.390;2023-06-26T01:49:37;4.37;;;3.20;;
4694;SDS011;2361;49.540;8.390;2023-06-26T01:52:08;4.27;;;3.40;;
4694;SDS011;2361;49.540;8.390;2023-06-26T01:55:20;4.00;;;3.10;;
4694;SDS011;2361;49.540;8.390;2023-06-26T01:58:02;5.70;;;3.37;;
4694;SDS011;2361;49.540;8.390;2023-06-26T02:00:29;4.73;;;3.60;;
4694;SDS011;2361;49.540;8.390;2023-06-26T02:02:57;5.57;;;3.60;;
4694;SDS011;2361;49.540;8.390;2023-06-26T02:05:25;6.93;;;3.77;;
4694;SDS011;2361;49.540;8.390;2023-06-26T02:07:52;4.27;;;3.50;;
4694;SDS011;2361;49.540;8.390;2023-06-26T02:10:19;3.60;;;3.30;;
4694;SDS011;2361;49.540;8.390;2023-06-26T02:12:46;5.27;;;3.73;;
4694;SDS011;2361;49.540;8.390;2023-06-26T02:15:13;3.93;;;3.50;;
4694;SDS011;2361;49.540;8.390;2023-06-26T02:17:40;3.90;;;3.40;;
4694;SDS011;2361;49.540;8.390;2023-06-26T02:20:08;3.70;;;3.17;;
4694;SDS011;2361;49.540;8.390;2023-06-26T02:22:36;4.00;;;3.07;;
4694;SDS011;2361;49.540;8.390;2023-06-26T02:25:03;3.17;;;2.87;;
4694;SDS011;2361;49.540;8.390;2023-06-26T02:27:31;5.07;;;3.30;;
4694;SDS011;2361;49.540;8.390;2023-06-26T02:29:58;4.10;;;3.10;;
4694;SDS011;2361;49.540;8.390;2023-06-26T02:32:25;3.97;;;3.20;;
4694;SDS011;2361;49.540;8.390;2023-06-26T02:34:52;4.93;;;3.10;;
4694;SDS011;2361;49.540;8.390;2023-06-26T02:37:20;5.30;;;3.27;;
4694;SDS011;2361;49.540;8.390;2023-06-26T02:39:47;3.33;;;3.10;;
4694;SDS011;2361;49.540;8.390;2023-06-26T02:42:14;5.73;;;4.10;;
4694;SDS011;2361;49.540;8.390;2023-06-26T02:44:41;5.83;;;4.07;;
4694;SDS011;2361;49.540;8.390;2023-06-26T02:47:08;5.27;;;3.67;;
4694;SDS011;2361;49.540;8.390;2023-06-26T02:49:35;5.40;;;4.27;;
4694;SDS011;2361;49.540;8.390;2023-06-26T02:52:02;4.87;;;4.10;;
4694;SDS011;2361;49.540;8.390;2023-06-26T02:54:29;4.70;;;4.07;;
4694;SDS011;2361;49.540;8.390;2023-06-26T02:56:56;4.30;;;3.70;;
4694;SDS011;2361;49.540;8.390;2023-06-26T02:59:23;3.57;;;3.27;;
4694;SDS011;2361;49.540;8.390;2023-06-26T03:01:51;3.50;;;3.10;;
4694;SDS011;2361;49.540;8.390;2023-06-26T03:04:18;3.47;;;2.60;;
4694;SDS011;2361;49.540;8.390;2023-06-26T03:06:48;5.30;;;3.40;;
4694;SDS011;2361;49.540;8.390;2023-06-26T03:09:15;5.20;;;3.70;;
4694;SDS011;2361;49.540;8.390;2023-06-26T03:11:43;4.47;;;3.40;;
4694;SDS011;2361;49.540;8.390;2023-06-26T03:14:10;6.70;;;3.47;;
4694;SDS011;2361;49.540;8.390;2023-06-26T03:16:37;3.93;;;2.73;;
4694;SDS011;2361;49.540;8.390;2023-06-26T03:19:04;5.00;;;3.20;;
4694;SDS011;2361;49.540;8.390;2023-06-26T03:21:32;3.30;;;3.00;;
4694;SDS011;2361;49.540;8.390;2023-06-26T03:23:59;3.63;;;2.80;;
4694;SDS011;2361;49.540;8.390;2023-06-26T03:26:26;3.50;;;2.80;;
4694;SDS011;2361;49.540;8.390;2023-06-26T03:28:54;5.10;;;3.70;;
4694;SDS011;2361;49.540;8.390;2023-06-26T03:31:21;3.70;;;3.33;;
4694;SDS011;2361;49.540;8.390;2023-06-26T03:33:48;4.53;;;3.70;;
4694;SDS011;2361;49.540;8.390;2023-06-26T03:36:15;4.47;;;2.97;;
4694;SDS011;2361;49.540;8.390;2023-06-26T03:38:42;5.17;;;3.50;;
4694;SDS011;2361;49.540;8.390;2023-06-26T03:41:09;5.33;;;3.80;;
4694;SDS011;2361;49.540;8.390;2023-06-26T03:43:37;4.63;;;3.60;;
4694;SDS011;2361;49.540;8.390;2023-06-26T03:46:04;4.67;;;3.00;;
4694;SDS011;2361;49.540;8.390;2023-06-26T03:48:31;5.17;;;3.30;;
4694;SDS011;2361;49.540;8.390;2023-06-26T03:50:58;4.30;;;3.50;;
4694;SDS011;2361;49.540;8.390;2023-06-26T03:53:25;3.53;;;3.10;;
4694;SDS011;2361;49.540;8.390;2023-06-26T03:55:52;5.77;;;3.67;;
4694;SDS011;2361;49.540;8.390;2023-06-26T03:58:19;4.10;;;3.70;;
4694;SDS011;2361;49.540;8.390;2023-06-26T04:00:46;5.13;;;3.50;;
4694;SDS011;2361;49.540;8.390;2023-06-26T04:03:13;4.20;;;3.23;;
4694;SDS011;2361;49.540;8.390;2023-06-26T04:05:40;5.33;;;3.50;;
4694;SDS011;2361;49.540;8.390;2023-06-26T04:08:07;4.27;;;3.17;;
4694;SDS011;2361;49.540;8.390;2023-06-26T04:10:35;11.20;;;3.93;;
4694;SDS011;2361;49.540;8.390;2023-06-26T04:13:04;3.27;;;3.00;;
4694;SDS011;2361;49.540;8.390;2023-06-26T04:15:31;4.97;;;3.90;;
4694;SDS011;2361;49.540;8.390;2023-06-26T04:17:58;4.60;;;3.80;;
4694;SDS011;2361;49.540;8.390;2023-06-26T04:20:25;3.90;;;3.50;;
4694;SDS011;2361;49.540;8.390;2023-06-26T04:22:52;4.27;;;3.37;;
4694;SDS011;2361;49.540;8.390;2023-06-26T04:25:19;5.90;;;3.77;;
4694;SDS011;2361;49.540;8.390;2023-06-26T04:27:46;3.23;;;2.93;;
4694;SDS011;2361;49.540;8.390;2023-06-26T04:30:13;6.43;;;3.60;;
4694;SDS011;2361;49.540;8.390;2023-06-26T04:32:40;13.80;;;3.63;;
4694;SDS011;2361;49.540;8.390;2023-06-26T04:35:07;3.23;;;2.80;;
4694;SDS011;2361;49.540;8.390;2023-06-26T04:37:36;4.70;;;3.47;;
4694;SDS011;2361;49.540;8.390;2023-06-26T04:40:04;5.27;;;3.27;;
4694;SDS011;2361;49.540;8.390;2023-06-26T04:42:33;5.30;;;3.40;;
4694;SDS011;2361;49.540;8.390;2023-06-26T04:45:00;4.00;;;2.80;;
4694;SDS011;2361;49.540;8.390;2023-06-26T04:47:28;4.30;;;3.00;;
4694;SDS011;2361;49.540;8.390;2023-06-26T04:49:56;4.50;;;3.27;;
4694;SDS011;2361;49.540;8.390;2023-06-26T04:52:23;3.77;;;2.90;;
4694;SDS011;2361;49.540;8.390;2023-06-26T04:54:50;8.57;;;2.97;;
4694;SDS011;2361;49.540;8.390;2023-06-26T04:57:17;3.63;;;2.80;;
4694;SDS011;2361;49.540;8.390;2023-06-26T04:59:44;5.37;;;3.60;;
4694;SDS011;2361;49.540;8.390;2023-06-26T05:02:11;4.83;;;3.40;;
4694;SDS011;2361;49.540;8.390;2023-06-26T05:04:41;4.17;;;3.00;;
4694;SDS011;2361;49.540;8.390;2023-06-26T05:07:08;5.70;;;3.73;;
4694;SDS011;2361;49.540;8.390;2023-06-26T05:09:35;3.07;;;2.87;;
4694;SDS011;2361;49.540;8.390;2023-06-26T05:12:03;4.50;;;3.27;;
4694;SDS011;2361;49.540;8.390;2023-06-26T05:14:30;3.03;;;2.80;;
4694;SDS011;2361;49.540;8.390;2023-06-26T05:16:57;4.17;;;3.00;;
4694;SDS011;2361;49.540;8.390;2023-06-26T05:19:24;4.40;;;3.40;;
4694;SDS011;2361;49.540;8.390;2023-06-26T05:21:51;3.07;;;2.87;;
4694;SDS011;2361;49.540;8.390;2023-06-26T05:24:18;3.33;;;2.67;;
4694;SDS011;2361;49.540;8.390;2023-06-26T05:26:47;5.40;;;3.57;;
4694;SDS011;2361;49.540;8.390;2023-06-26T05:29:15;3.40;;;3.10;;
4694;SDS011;2361;49.540;8.390;2023-06-26T05:31:42;3.23;;;3.00;;
4694;SDS011;2361;49.540;8.390;2023-06-26T05:34:12;4.97;;;3.70;;
4694;SDS011;2361;49.540;8.390;2023-06-26T05:36:41;3.97;;;3.27;;
4694;SDS011;2361;49.540;8.390;2023-06-26T05:39:09;4.20;;;3.30;;
4694;SDS011;2361;49.540;8.390;2023-06-26T05:41:36;3.70;;;3.10;;
4694;SDS011;2361;49.540;8.390;2023-06-26T05:44:04;4.87;;;3.57;;
4694;SDS011;2361;49.540;8.390;2023-06-26T05:46:31;3.40;;;3.13;;
4694;SDS011;2361;49.540;8.390;2023-06-26T05:48:58;4.70;;;3.30;;
4694;SDS011;2361;49.540;8.390;2023-06-26T05:51:25;4.43;;;2.80;;
4694;SDS011;2361;49.540;8.390;2023-06-26T05:53:52;3.80;;;3.10;;
4694;SDS011;2361;49.540;8.390;2023-06-26T05:56:20;4.93;;;3.40;;
4694;SDS011;2361;49.540;8.390;2023-06-26T05:58:47;3.50;;;3.20;;
4694;SDS011;2361;49.540;8.390;2023-06-26T06:01:15;4.30;;;2.90;;
4694;SDS011;2361;49.540;8.390;2023-06-26T06:03:42;3.37;;;3.03;;
4694;SDS011;2361;49.540;8.390;2023-06-26T06:06:09;5.67;;;3.30;;
4694;SDS011;2361;49.540;8.390;2023-06-26T06:08:36;3.50;;;3.20;;
4694;SDS011;2361;49.540;8.390;2023-06-26T06:11:04;4.50;;;3.63;;
4694;SDS011;2361;49.540;8.390;2023-06-26T06:13:31;4.13;;;3.73;;
4694;SDS011;2361;49.540;8.390;2023-06-26T06:15:58;5.10;;;3.10;;
4694;SDS011;2361;49.540;8.390;2023-06-26T06:18:25;3.37;;;3.07;;
4694;SDS011;2361;49.540;8.390;2023-06-26T06:20:52;3.57;;;3.10;;
4694;SDS011;2361;49.540;8.390;2023-06-26T06:23:19;6.83;;;3.73;;
4694;SDS011;2361;49.540;8.390;2023-06-26T06:25:47;4.40;;;4.00;;
4694;SDS011;2361;49.540;8.390;2023-06-26T06:28:14;8.73;;;3.70;;
4694;SDS011;2361;49.540;8.390;2023-06-26T06:30:43;3.80;;;3.50;;
4694;SDS011;2361;49.540;8.390;2023-06-26T06:33:11;4.43;;;3.47;;
4694;SDS011;2361;49.540;8.390;2023-06-26T06:35:38;5.73;;;4.17;;
4694;SDS011;2361;49.540;8.390;2023-06-26T06:38:05;3.67;;;3.30;;
4694;SDS011;2361;49.540;8.390;2023-06-26T06:40:32;4.20;;;3.80;;
4694;SDS011;2361;49.540;8.390;2023-06-26T06:42:59;4.53;;;3.63;;
4694;SDS011;2361;49.540;8.390;2023-06-26T06:45:29;3.67;;;3.20;;
4694;SDS011;2361;49.540;8.390;2023-06-26T06:47:56;3.97;;;3.50;;
4694;SDS011;2361;49.540;8.390;2023-06-26T06:50:24;6.20;;;4.30;;
4694;SDS011;2361;49.540;8.390;2023-06-26T06:52:50;4.27;;;3.63;;
4694;SDS011;2361;49.540;8.390;2023-06-26T06:55:19;4.80;;;4.10;;
4694;SDS011;2361;49.540;8.390;2023-06-26T06:57:45;5.37;;;4.57;;
4694;SDS011;2361;49.540;8.390;2023-06-26T07:00:15;5.20;;;4.20;;
4694;SDS011;2361;49.540;8.390;2023-06-26T07:02:44;5.60;;;4.40;;
4694;SDS011;2361;49.540;8.390;2023-06-26T07:05:12;4.20;;;3.80;;
4694;SDS011;2361;49.540;8.390;2023-06-26T07:07:39;4.43;;;4.07;;
4694;SDS011;2361;49.540;8.390;2023-06-26T07:10:11;8.40;;;5.60;;
4694;SDS011;2361;49.540;8.390;2023-06-26T07:12:39;3.70;;;3.40;;
4694;SDS011;2361;49.540;8.390;2023-06-26T07:15:06;5.60;;;5.07;;
4694;SDS011;2361;49.540;8.390;2023-06-26T07:17:35;4.57;;;4.17;;
4694;SDS011;2361;49.540;8.390;2023-06-26T07:20:04;4.03;;;3.73;;
4694;SDS011;2361;49.540;8.390;2023-06-26T07:22:34;5.10;;;4.60;;
4694;SDS011;2361;49.540;8.390;2023-06-26T07:25:02;4.47;;;4.17;;
4694;SDS011;2361;49.540;8.390;2023-06-26T07:27:32;4.43;;;4.13;;
4694;SDS011;2361;49.540;8.390;2023-06-26T07:29:59;4.03;;;3.73;;
4694;SDS011;2361;49.540;8.390;2023-06-26T07:32:26;4.17;;;3.87;;
4694;SDS011;2361;49.540;8.390;2023-06-26T07:34:53;4.30;;;3.90;;
4694;SDS011;2361;49.540;8.390;2023-06-26T07:37:20;4.17;;;3.87;;
4694;SDS011;2361;49.540;8.390;2023-06-26T07:39:49;6.30;;;5.07;;
4694;SDS011;2361;49.540;8.390;2023-06-26T07:42:16;6.23;;;5.00;;
4694;SDS011;2361;49.540;8.390;2023-06-26T07:44:43;4.67;;;4.27;;
4694;SDS011;2361;49.540;8.390;2023-06-26T07:47:10;4.80;;;4.50;;
4694;SDS011;2361;49.540;8.390;2023-06-26T07:49:37;4.57;;;4.17;;
4694;SDS011;2361;49.540;8.390;2023-06-26T07:52:05;4.50;;;4.17;;
4694;SDS011;2361;49.540;8.390;2023-06-26T07:54:33;4.70;;;4.27;;
4694;SDS011;2361;49.540;8.390;2023-06-26T07:57:01;3.93;;;3.73;;
4694;SDS011;2361;49.540;8.390;2023-06-26T07:59:31;4.13;;;3.73;;
4694;SDS011;2361;49.540;8.390;2023-06-26T08:01:58;4.67;;;4.37;;
4694;SDS011;2361;49.540;8.390;2023-06-26T08:04:26;3.60;;;3.40;;
4694;SDS011;2361;49.540;8.390;2023-06-26T08:06:56;5.10;;;4.70;;
4694;SDS011;2361;49.540;8.390;2023-06-26T08:09:25;4.40;;;4.00;;
4694;SDS011;2361;49.540;8.390;2023-06-26T08:11:54;4.60;;;4.30;;
4694;SDS011;2361;49.540;8.390;2023-06-26T08:14:22;6.70;;;4.50;;
4694;SDS011;2361;49.540;8.390;2023-06-26T08:16:50;4.77;;;4.47;;
4694;SDS011;2361;49.540;8.390;2023-06-26T08:19:17;4.40;;;4.10;;
4694;SDS011;2361;49.540;8.390;2023-06-26T08:21:45;4.17;;;3.87;;
4694;SDS011;2361;49.540;8.390;2023-06-26T08:24:12;4.70;;;4.40;;
4694;SDS011;2361;49.540;8.390;2023-06-26T08:26:42;4.40;;;4.10;;
4694;SDS011;2361;49.540;8.390;2023-06-26T08:29:14;4.53;;;4.27;;
4694;SDS011;2361;49.540;8.390;2023-06-26T08:31:41;5.67;;;3.27;;
4694;SDS011;2361;49.540;8.390;2023-06-26T08:34:09;7.13;;;4.17;;
4694;SDS011;2361;49.540;8.390;2023-06-26T08:36:36;3.67;;;3.47;;
4694;SDS011;2361;49.540;8.390;2023-06-26T08:39:04;4.30;;;4.10;;
4694;SDS011;2361;49.540;8.390;2023-06-26T08:41:32;5.17;;;3.40;;
4694;SDS011;2361;49.540;8.390;2023-06-26T08:43:59;4.50;;;4.20;;
4694;SDS011;2361;49.540;8.390;2023-06-26T08:46:27;5.30;;;4.90;;
4694;SDS011;2361;49.540;8.390;2023-06-26T08:48:55;5.83;;;3.93;;
4694;SDS011;2361;49.540;8.390;2023-06-26T08:51:25;4.10;;;3.80;;
4694;SDS011;2361;49.540;8.390;2023-06-26T08:53:59;4.73;;;4.20;;
4694;SDS011;2361;49.540;8.390;2023-06-26T08:56:37;3.70;;;3.50;;
4694;SDS011;2361;49.540;8.390;2023-06-26T08:59:08;3.50;;;3.23;;
4694;SDS011;2361;49.540;8.390;2023-06-26T09:01:40;3.77;;;3.47;;
4694;SDS011;2361;49.540;8.390;2023-06-26T09:04:08;4.67;;;4.27;;
4694;SDS011;2361;49.540;8.390;2023-06-26T09:06:38;4.73;;;4.33;;
4694;SDS011;2361;49.540;8.390;2023-06-26T09:09:05;5.00;;;4.50;;
4694;SDS011;2361;49.540;8.390;2023-06-26T09:11:36;5.40;;;5.00;;
4694;SDS011;2361;49.540;8.390;2023-06-26T09:14:03;4.60;;;4.20;;
4694;SDS011;2361;49.540;8.390;2023-06-26T09:16:38;3.80;;;3.60;;
4694;SDS011;2361;49.540;8.390;2023-06-26T09:19:09;4.00;;;3.80;;
4694;SDS011;2361;49.540;8.390;2023-06-26T09:21:39;3.63;;;3.43;;
4694;SDS011;2361;49.540;8.390;2023-06-26T09:24:08;3.97;;;3.77;;
4694;SDS011;2361;49.540;8.390;2023-06-26T09:26:37;4.00;;;3.80;;
4694;SDS011;2361;49.540;8.390;2023-06-26T09:29:05;5.83;;;4.50;;
4694;SDS011;2361;49.540;8.390;2023-06-26T09:31:35;4.07;;;3.77;;
4694;SDS011;2361;49.540;8.390;2023-06-26T09:34:08;4.33;;;4.13;;
4694;SDS011;2361;49.540;8.390;2023-06-26T09:36:35;4.67;;;4.47;;
4694;SDS011;2361;49.540;8.390;2023-06-26T09:39:07;5.30;;;5.00;;
4694;SDS011;2361;49.540;8.390;2023-06-26T09:41:38;5.17;;;4.87;;
4694;SDS011;2361;49.540;8.390;2023-06-26T09:44:13;4.80;;;4.50;;
4694;SDS011;2361;49.540;8.390;2023-06-26T09:46:44;4.80;;;4.60;;
4694;SDS011;2361;49.540;8.390;2023-06-26T09:49:12;5.60;;;5.23;;
4694;SDS011;2361;49.540;8.390;2023-06-26T09:51:41;3.43;;;3.30;;
4694;SDS011;2361;49.540;8.390;2023-06-26T09:54:09;4.53;;;4.23;;
4694;SDS011;2361;49.540;8.390;2023-06-26T09:56:36;6.20;;;4.73;;
4694;SDS011;2361;49.540;8.390;2023-06-26T09:59:04;5.03;;;4.67;;
4694;SDS011;2361;49.540;8.390;2023-06-26T10:01:32;4.57;;;4.27;;
4694;SDS011;2361;49.540;8.390;2023-06-26T10:04:00;4.83;;;4.37;;
4694;SDS011;2361;49.540;8.390;2023-06-26T10:06:36;4.93;;;4.43;;
4694;SDS011;2361;49.540;8.390;2023-06-26T10:09:12;5.13;;;4.70;;
4694;SDS011;2361;49.540;8.390;2023-06-26T10:14:27;4.47;;;4.17;;
4694;SDS011;2361;49.540;8.390;2023-06-26T10:17:01;4.70;;;4.20;;
4694;SDS011;2361;49.540;8.390;2023-06-26T10:19:32;5.17;;;3.80;;
4694;SDS011;2361;49.540;8.390;2023-06-26T10:22:01;4.70;;;4.30;;
4694;SDS011;2361;49.540;8.390;2023-06-26T10:24:29;5.80;;;4.50;;
4694;SDS011;2361;49.540;8.390;2023-06-26T10:27:12;4.37;;;4.00;;
4694;SDS011;2361;49.540;8.390;2023-06-26T10:29:46;5.70;;;4.87;;
4694;SDS011;2361;49.540;8.390;2023-06-26T10:32:21;6.93;;;4.10;;
4694;SDS011;2361;49.540;8.390;2023-06-26T10:34:51;5.57;;;5.00;;
4694;SDS011;2361;49.540;8.390;2023-06-26T10:37:19;13.63;;;4.80;;
4694;SDS011;2361;49.540;8.390;2023-06-26T10:39:47;5.57;;;3.60;;
4694;SDS011;2361;49.540;8.390;2023-06-26T10:42:16;4.33;;;4.03;;
4694;SDS011;2361;49.540;8.390;2023-06-26T10:44:45;4.40;;;3.73;;
4694;SDS011;2361;49.540;8.390;2023-06-26T10:47:29;5.27;;;4.20;;
4694;SDS011;2361;49.540;8.390;2023-06-26T10:55:57;5.07;;;4.57;;
4694;SDS011;2361;49.540;8.390;2023-06-26T11:01:17;5.00;;;4.53;;
4694;SDS011;2361;49.540;8.390;2023-06-26T11:06:19;5.30;;;4.40;;
4694;SDS011;2361;49.540;8.390;2023-06-26T11:08:50;4.77;;;4.13;;
4694;SDS011;2361;49.540;8.390;2023-06-26T11:11:22;4.50;;;3.90;;
4694;SDS011;2361;49.540;8.390;2023-06-26T11:14:19;5.00;;;4.60;;
4694;SDS011;2361;49.540;8.390;2023-06-26T11:16:50;4.20;;;3.80;;
4694;SDS011;2361;49.540;8.390;2023-06-26T11:19:18;13.87;;;10.40;;
4694;SDS011;2361;49.540;8.390;2023-06-26T11:21:46;8.63;;;6.80;;
4694;SDS011;2361;49.540;8.390;2023-06-26T11:24:14;4.73;;;3.73;;
4694;SDS011;2361;49.540;8.390;2023-06-26T11:26:41;3.30;;;3.03;;
4694;SDS011;2361;49.540;8.390;2023-06-26T11:29:10;3.33;;;3.07;;
4694;SDS011;2361;49.540;8.390;2023-06-26T11:31:39;3.73;;;3.43;;
4694;SDS011;2361;49.540;8.390;2023-06-26T11:34:11;4.30;;;3.90;;
4694;SDS011;2361;49.540;8.390;2023-06-26T11:36:40;4.30;;;3.87;;
4694;SDS011;2361;49.540;8.390;2023-06-26T11:39:09;3.37;;;3.17;;
4694;SDS011;2361;49.540;8.390;2023-06-26T11:41:36;3.30;;;3.10;;
4694;SDS011;2361;49.540;8.390;2023-06-26T11:44:06;4.13;;;3.30;;
4694;SDS011;2361;49.540;8.390;2023-06-26T11:46:36;2.73;;;2.50;;
4694;SDS011;2361;49.540;8.390;2023-06-26T11:49:07;6.10;;;4.13;;
4694;SDS011;2361;49.540;8.390;2023-06-26T11:51:34;3.27;;;3.00;;
4694;SDS011;2361;49.540;8.390;2023-06-26T11:54:05;1.77;;;1.67;;
4694;SDS011;2361;49.540;8.390;2023-06-26T11:56:32;2.40;;;2.30;;
4694;SDS011;2361;49.540;8.390;2023-06-26T11:59:06;3.23;;;2.90;;
4694;SDS011;2361;49.540;8.390;2023-06-26T12:01:39;2.73;;;2.50;;
4694;SDS011;2361;49.540;8.390;2023-06-26T12:04:11;6.00;;;3.47;;
4694;SDS011;2361;49.540;8.390;2023-06-26T12:06:45;2.97;;;2.80;;
4694;SDS011;2361;49.540;8.390;2023-06-26T12:09:18;4.20;;;3.57;;
4694;SDS011;2361;49.540;8.390;2023-06-26T12:11:46;5.10;;;2.80;;
4694;SDS011;2361;49.540;8.390;2023-06-26T12:14:15;2.33;;;2.10;;
4694;SDS011;2361;49.540;8.390;2023-06-26T12:16:44;3.33;;;3.00;;
4694;SDS011;2361;49.540;8.390;2023-06-26T12:19:14;2.97;;;2.77;;
4694;SDS011;2361;49.540;8.390;2023-06-26T12:24:13;3.20;;;2.90;;
4694;SDS011;2361;49.540;8.390;2023-06-26T12:26:51;4.37;;;3.57;;
4694;SDS011;2361;49.540;8.390;2023-06-26T12:29:31;4.50;;;3.57;;
4694;SDS011;2361;49.540;8.390;2023-06-26T12:32:00;4.10;;;3.70;;
4694;SDS011;2361;49.540;8.390;2023-06-26T12:34:36;3.97;;;3.57;;
4694;SDS011;2361;49.540;8.390;2023-06-26T12:37:05;7.50;;;3.97;;
4694;SDS011;2361;49.540;8.390;2023-06-26T12:39:49;5.43;;;3.70;;
4694;SDS011;2361;49.540;8.390;2023-06-26T12:42:17;4.50;;;3.13;;
4694;SDS011;2361;49.540;8.390;2023-06-26T12:44:52;7.43;;;4.37;;
4694;SDS011;2361;49.540;8.390;2023-06-26T12:47:24;7.50;;;5.37;;
4694;SDS011;2361;49.540;8.390;2023-06-26T12:49:57;4.10;;;3.00;;
4694;SDS011;2361;49.540;8.390;2023-06-26T12:52:24;4.50;;;4.07;;
4694;SDS011;2361;49.540;8.390;2023-06-26T12:54:52;6.93;;;4.27;;
4694;SDS011;2361;49.540;8.390;2023-06-26T12:57:20;7.07;;;5.30;;
4694;SDS011;2361;49.540;8.390;2023-06-26T12:59:48;3.87;;;3.43;;
4694;SDS011;2361;49.540;8.390;2023-06-26T13:02:15;5.07;;;3.90;;
4694;SDS011;2361;49.540;8.390;2023-06-26T13:04:42;4.53;;;4.00;;
4694;SDS011;2361;49.540;8.390;2023-06-26T13:07:10;4.60;;;4.03;;
4694;SDS011;2361;49.540;8.390;2023-06-26T13:09:38;4.20;;;3.10;;
4694;SDS011;2361;49.540;8.390;2023-06-26T13:12:07;4.90;;;3.87;;
4694;SDS011;2361;49.540;8.390;2023-06-26T13:14:35;4.50;;;3.60;;
4694;SDS011;2361;49.540;8.390;2023-06-26T13:17:02;2.90;;;1.80;;
4694;SDS011;2361;49.540;8.390;2023-06-26T13:19:30;7.23;;;4.00;;
4694;SDS011;2361;49.540;8.390;2023-06-26T13:21:58;3.70;;;2.90;;
4694;SDS011;2361;49.540;8.390;2023-06-26T13:24:26;3.23;;;2.90;;
4694;SDS011;2361;49.540;8.390;2023-06-26T13:26:53;2.37;;;2.17;;
4694;SDS011;2361;49.540;8.390;2023-06-26T13:29:20;3.07;;;2.77;;
4694;SDS011;2361;49.540;8.390;2023-06-26T13:31:47;1.77;;;1.67;;
4694;SDS011;2361;49.540;8.390;2023-06-26T13:34:23;2.70;;;2.50;;
4694;SDS011;2361;49.540;8.390;2023-06-26T13:36:53;2.40;;;2.20;;
4694;SDS011;2361;49.540;8.390;2023-06-26T13:39:20;1.80;;;1.70;;
4694;SDS011;2361;49.540;8.390;2023-06-26T13:41:48;1.97;;;1.87;;
4694;SDS011;2361;49.540;8.390;2023-06-26T13:44:15;1.40;;;1.30;;
4694;SDS011;2361;49.540;8.390;2023-06-26T13:46:46;2.60;;;1.20;;
4694;SDS011;2361;49.540;8.390;2023-06-26T13:49:13;2.10;;;1.90;;
4694;SDS011;2361;49.540;8.390;2023-06-26T13:51:40;1.30;;;1.30;;
4694;SDS011;2361;49.540;8.390;2023-06-26T13:54:12;3.70;;;1.90;;
4694;SDS011;2361;49.540;8.390;2023-06-26T13:56:39;1.97;;;1.87;;
4694;SDS011;2361;49.540;8.390;2023-06-26T13:59:06;4.50;;;2.00;;
4694;SDS011;2361;49.540;8.390;2023-06-26T14:01:33;1.40;;;1.30;;
4694;SDS011;2361;49.540;8.390;2023-06-26T14:04:00;1.80;;;1.43;;
4694;SDS011;2361;49.540;8.390;2023-06-26T14:06:27;2.60;;;1.90;;
4694;SDS011;2361;49.540;8.390;2023-06-26T14:08:55;3.43;;;1.80;;
4694;SDS011;2361;49.540;8.390;2023-06-26T14:11:22;1.77;;;1.67;;
4694;SDS011;2361;49.540;8.390;2023-06-26T14:13:49;5.90;;;1.60;;
4694;SDS011;2361;49.540;8.390;2023-06-26T14:16:16;1.63;;;1.20;;
4694;SDS011;2361;49.540;8.390;2023-06-26T14:19:03;2.07;;;1.80;;
4694;SDS011;2361;49.540;8.390;2023-06-26T14:21:30;1.10;;;1.00;;
4694;SDS011;2361;49.540;8.390;2023-06-26T14:23:59;1.53;;;1.43;;
4694;SDS011;2361;49.540;8.390;2023-06-26T14:26:26;1.70;;;1.60;;
4694;SDS011;2361;49.540;8.390;2023-06-26T14:28:56;3.63;;;1.30;;
4694;SDS011;2361;49.540;8.390;2023-06-26T14:31:23;1.23;;;1.23;;
4694;SDS011;2361;49.540;8.390;2023-06-26T14:33:50;1.60;;;1.50;;
4694;SDS011;2361;49.540;8.390;2023-06-26T14:36:17;1.47;;;1.37;;
4694;SDS011;2361;49.540;8.390;2023-06-26T14:38:45;1.13;;;1.13;;
4694;SDS011;2361;49.540;8.390;2023-06-26T14:41:12;1.50;;;1.40;;
4694;SDS011;2361;49.540;8.390;2023-06-26T14:43:39;1.70;;;1.40;;
4694;SDS011;2361;49.540;8.390;2023-06-26T14:46:06;1.83;;;1.73;;
4694;SDS011;2361;49.540;8.390;2023-06-26T14:48:33;1.27;;;1.27;;
4694;SDS011;2361;49.540;8.390;2023-06-26T14:51:00;2.00;;;1.23;;
4694;SDS011;2361;49.540;8.390;2023-06-26T14:53:27;0.80;;;0.80;;
4694;SDS011;2361;49.540;8.390;2023-06-26T14:55:54;1.47;;;1.40;;
4694;SDS011;2361;49.540;8.390;2023-06-26T14:58:21;1.37;;;1.27;;
4694;SDS011;2361;49.540;8.390;2023-06-26T15:00:49;1.27;;;1.27;;
4694;SDS011;2361;49.540;8.390;2023-06-26T15:03:16;1.60;;;1.50;;
4694;SDS011;2361;49.540;8.390;2023-06-26T15:05:43;1.40;;;1.27;;
4694;SDS011;2361;49.540;8.390;2023-06-26T15:08:10;2.27;;;1.40;;
4694;SDS011;2361;49.540;8.390;2023-06-26T15:10:37;1.37;;;1.27;;
4694;SDS011;2361;49.540;8.390;2023-06-26T15:13:04;2.17;;;1.70;;
4694;SDS011;2361;49.540;8.390;2023-06-26T15:15:32;1.50;;;1.50;;
4694;SDS011;2361;49.540;8.390;2023-06-26T15:17:59;1.40;;;1.40;;
4694;SDS011;2361;49.540;8.390;2023-06-26T15:20:26;1.33;;;1.30;;
4694;SDS011;2361;49.540;8.390;2023-06-26T15:22:53;2.53;;;1.30;;
4694;SDS011;2361;49.540;8.390;2023-06-26T15:25:20;1.57;;;1.47;;
4694;SDS011;2361;49.540;8.390;2023-06-26T15:27:47;1.70;;;1.60;;
4694;SDS011;2361;49.540;8.390;2023-06-26T15:30:16;1.60;;;1.10;;
4694;SDS011;2361;49.540;8.390;2023-06-26T15:32:43;4.67;;;1.33;;
4694;SDS011;2361;49.540;8.390;2023-06-26T15:35:10;6.50;;;4.17;;
4694;SDS011;2361;49.540;8.390;2023-06-26T15:37:37;2.30;;;2.20;;
4694;SDS011;2361;49.540;8.390;2023-06-26T15:40:04;4.03;;;3.67;;
4694;SDS011;2361;49.540;8.390;2023-06-26T15:42:32;2.20;;;1.27;;
4694;SDS011;2361;49.540;8.390;2023-06-26T15:44:59;1.70;;;1.60;;
4694;SDS011;2361;49.540;8.390;2023-06-26T15:47:26;0.87;;;0.87;;